Time;durP1;ratioP1;P1;durP2;ratioP2;P2;SDS_P1;SDS_P2;PMS_P1;PMS_P2;Temp;Humidity;BMP_temperature;BMP_pressure;BME280_temperature;BME280_humidity;BME280_pressure;Samples;Min_cycle;Max_cycle;Signal;HPM_P1;HPM_P2
2022/05/07 08:51:23;;;;;;;8.32;6.95;;;22.60;83.20;;;;;;6401720;23;89017;-72
2022/05/07 08:54:25;;;;;;;7.55;6.95;;;22.60;83.70;;;;;;5927983;29;89125;-70
2022/05/07 08:57:27;;;;;;;7.65;7.00;;;22.60;84.20;;;;;;5913761;29;89125;-72
2022/05/07 09:00:29;;;;;;;85.53;68.00;;;22.60;84.30;;;;;;5916403;29;88271;-70
2022/05/07 09:03:42;;;;;;;653.80;546.90;;;22.70;84.90;;;;;;5912753;29;89255;-72
2022/05/07 09:06:56;;;;;;;1752.30;861.95;;;22.70;90.80;;;;;;5908202;29;89090;-73
2022/05/07 09:09:58;;;;;;;699.83;433.33;;;22.80;91.80;;;;;;5895514;29;90215;-72
2022/05/07 09:13:01;;;;;;;545.75;330.83;;;22.90;89.60;;;;;;5915532;29;89226;-71
2022/05/07 09:16:04;;;;;;;422.70;251.18;;;23.00;86.10;;;;;;5915184;29;89410;-72
2022/05/07 09:19:06;;;;;;;341.17;200.32;;;23.10;84.90;;;;;;5904799;29;89499;-72
2022/05/07 09:22:11;;;;;;;252.38;147.13;;;23.10;84.20;;;;;;5904570;29;89322;-72
2022/05/07 09:25:19;;;;;;;189.25;112.15;;;23.10;83.80;;;;;;5906181;29;89177;-70
2022/05/07 09:28:28;;;;;;;125.85;75.20;;;23.10;83.10;;;;;;5919655;29;88678;-70
2022/05/07 09:31:32;;;;;;;95.82;57.40;;;23.10;84.40;;;;;;5902507;29;88393;-71
2022/05/07 09:37:58;;;;;;;59.97;36.92;;;23.00;84.90;;;;;;5908541;29;87358;-66
2022/05/07 09:41:00;;;;;;;47.65;28.35;;;23.00;86.10;;;;;;5909348;29;90259;-69
2022/05/07 09:44:03;;;;;;;41.63;25.40;;;23.00;90.40;;;;;;5911302;29;89645;-70
2022/05/07 09:47:06;;;;;;;33.60;22.30;;;23.00;92.30;;;;;;5894112;29;89148;-69
2022/05/07 09:50:23;;;;;;;33.20;21.23;;;22.90;89.30;;;;;;5907377;29;89031;-69
2022/05/07 10:00:10;;;;;;;31.38;17.38;;;22.80;85.20;;;;;;5901993;29;87725;-69
2022/05/07 10:03:17;;;;;;;33.78;16.20;;;22.80;85.50;;;;;;5909579;29;88354;-70
2022/05/07 10:06:31;;;;;;;28.75;15.43;;;22.90;85.50;;;;;;5900810;29;89338;-69
2022/05/07 10:09:44;;;;;;;25.67;13.48;;;22.80;85.40;;;;;;5897692;29;89184;-73
2022/05/07 10:12:47;;;;;;;16.85;10.70;;;22.80;85.20;;;;;;5908103;29;89242;-71
2022/05/07 10:15:59;;;;;;;13.90;9.45;;;22.70;84.90;;;;;;5911473;29;88891;-71
2022/05/07 10:19:11;;;;;;;11.02;8.55;;;22.70;84.40;;;;;;5904372;29;89151;-72
2022/05/07 10:22:18;;;;;;;12.48;8.75;;;22.80;84.30;;;;;;5904701;29;89009;-71
2022/05/07 10:25:21;;;;;;;20.05;11.00;;;22.70;84.30;;;;;;5912716;29;89151;-70
2022/05/07 10:28:23;;;;;;;28.40;13.25;;;22.70;84.90;;;;;;5907572;29;89115;-70
2022/05/07 10:31:26;;;;;;;32.88;14.45;;;22.70;86.40;;;;;;5912145;29;89063;-70
2022/05/07 10:34:28;;;;;;;23.30;13.10;;;22.70;87.70;;;;;;5906569;29;88699;-70
2022/05/07 10:37:41;;;;;;;23.20;11.95;;;22.70;87.90;;;;;;5907144;29;88414;-71
2022/05/07 10:41:04;;;;;;;18.75;10.68;;;22.70;88.30;;;;;;5913477;29;89157;-72
2022/05/07 10:44:07;;;;;;;18.05;10.73;;;22.70;90.00;;;;;;5910325;29;90082;-73
2022/05/07 10:47:10;;;;;;;17.65;9.65;;;22.70;89.70;;;;;;5900951;29;89209;-70
2022/05/07 10:50:13;;;;;;;16.85;9.40;;;22.70;88.40;;;;;;5907717;29;89645;-70
2022/05/07 10:53:15;;;;;;;15.75;9.50;;;22.70;88.60;;;;;;5910019;29;89017;-70
2022/05/07 10:56:20;;;;;;;15.52;9.65;;;22.80;88.70;;;;;;5913305;29;89326;-70
2022/05/07 10:59:23;;;;;;;19.30;10.20;;;22.70;88.30;;;;;;5915368;29;89498;-70
2022/05/07 11:02:31;;;;;;;19.13;10.57;;;22.80;87.70;;;;;;5913279;29;89482;-70
2022/05/07 11:05:34;;;;;;;19.42;10.32;;;22.80;87.90;;;;;;5905639;29;88385;-70
2022/05/07 11:08:47;;;;;;;18.27;10.10;;;22.80;87.70;;;;;;5915629;29;88974;-70
2022/05/07 11:11:53;;;;;;;12.88;9.90;;;22.70;87.60;;;;;;5911951;29;88682;-70
2022/05/07 11:14:55;;;;;;;12.35;9.20;;;22.80;87.40;;;;;;5903964;29;89148;-69
2022/05/07 11:17:57;;;;;;;13.38;9.13;;;22.80;87.20;;;;;;5910550;29;89027;-70
2022/05/07 11:21:03;;;;;;;14.75;8.57;;;22.80;87.10;;;;;;5906145;29;89172;-70
2022/05/07 11:24:07;;;;;;;12.30;8.68;;;22.80;86.80;;;;;;5897945;29;87993;-70
2022/05/07 11:27:11;;;;;;;15.18;8.88;;;22.80;86.70;;;;;;5904181;29;88038;-71
2022/05/07 11:30:15;;;;;;;15.43;8.80;;;22.80;86.50;;;;;;5903951;29;89106;-70
2022/05/07 11:33:24;;;;;;;12.70;8.13;;;22.80;86.40;;;;;;5915950;29;89119;-70
2022/05/07 11:36:26;;;;;;;12.52;8.63;;;22.70;86.20;;;;;;5904517;29;87456;-70
2022/05/07 11:39:28;;;;;;;15.07;9.23;;;22.70;86.10;;;;;;5904335;29;89035;-70
2022/05/07 11:42:35;;;;;;;13.00;8.77;;;22.70;86.10;;;;;;5903612;29;89085;-70
2022/05/07 11:45:37;;;;;;;13.15;8.57;;;22.80;85.90;;;;;;5903748;29;90474;-70
2022/05/07 11:48:39;;;;;;;13.73;9.25;;;22.80;85.90;;;;;;5903779;29;89253;-70
2022/05/07 11:51:41;;;;;;;18.30;9.57;;;22.80;85.90;;;;;;5921754;29;89086;-70
2022/05/07 11:54:50;;;;;;;18.02;10.25;;;22.70;85.70;;;;;;5914285;29;89176;-71
2022/05/07 11:57:54;;;;;;;18.70;10.50;;;22.80;85.70;;;;;;5908428;29;88349;-70
2022/05/07 12:00:56;;;;;;;18.58;10.18;;;22.70;85.50;;;;;;5914682;29;89110;-70
2022/05/07 12:04:08;;;;;;;18.95;10.85;;;22.70;85.40;;;;;;5902521;29;89413;-69
2022/05/07 12:07:29;;;;;;;21.02;11.55;;;22.70;85.30;;;;;;5914602;29;87407;-70
2022/05/07 12:10:31;;;;;;;19.33;12.23;;;22.70;85.30;;;;;;5909589;29;89212;-69
2022/05/07 12:13:35;;;;;;;21.67;11.85;;;22.70;85.20;;;;;;5903845;29;89359;-70
2022/05/07 12:20:03;;;;;;;24.25;12.98;;;22.70;86.10;;;;;;5904355;29;87354;-69
2022/05/07 12:29:50;;;;;;;22.63;12.95;;;22.70;84.90;;;;;;5902672;29;87786;-69
2022/05/07 12:32:54;;;;;;;21.88;13.52;;;22.70;84.90;;;;;;5914260;29;88874;-70
2022/05/07 12:35:56;;;;;;;23.55;13.55;;;22.70;84.80;;;;;;5902035;29;89169;-68
2022/05/07 12:38:59;;;;;;;21.73;13.38;;;22.70;84.80;;;;;;5914579;29;88438;-69
2022/05/07 12:42:05;;;;;;;24.10;13.90;;;22.70;84.70;;;;;;5902323;29;89312;-69
2022/05/07 12:45:10;;;;;;;25.45;14.07;;;22.70;84.70;;;;;;5907184;29;89467;-69
2022/05/07 12:48:12;;;;;;;23.92;14.27;;;22.70;84.70;;;;;;5912128;29;89751;-69
2022/05/07 12:51:14;;;;;;;25.65;14.38;;;22.70;84.70;;;;;;5910446;29;89048;-68
2022/05/07 12:54:35;;;;;;;24.38;14.13;;;22.70;84.70;;;;;;5903978;29;89208;-68
2022/05/07 12:57:37;;;;;;;23.20;13.93;;;22.70;84.60;;;;;;5909460;29;89377;-70
2022/05/07 13:00:41;;;;;;;23.42;14.00;;;22.70;84.60;;;;;;5913972;29;89128;-70
2022/05/07 13:03:44;;;;;;;21.77;13.73;;;22.70;84.60;;;;;;5901124;29;89539;-69
2022/05/07 13:06:46;;;;;;;22.40;13.80;;;22.70;84.50;;;;;;5908971;29;89093;-70
2022/05/07 13:09:48;;;;;;;22.98;13.82;;;22.70;84.50;;;;;;5897747;29;88558;-70
2022/05/07 13:12:50;;;;;;;23.48;14.45;;;22.70;84.40;;;;;;5908174;29;89128;-69
2022/05/07 13:15:54;;;;;;;24.85;14.43;;;22.70;84.40;;;;;;5906462;29;89268;-69
2022/05/07 13:18:55;;;;;;;24.80;14.15;;;22.70;84.40;;;;;;5891304;29;88908;-69
2022/05/07 13:21:57;;;;;;;21.38;13.90;;;22.70;84.40;;;;;;5917686;29;89290;-69
2022/05/07 13:24:59;;;;;;;23.50;14.20;;;22.70;84.40;;;;;;5915556;29;89356;-69
2022/05/07 13:28:01;;;;;;;25.73;14.73;;;22.60;84.30;;;;;;5912549;29;89107;-69
2022/05/07 13:31:07;;;;;;;24.27;14.60;;;22.70;84.40;;;;;;5911488;29;89105;-69
2022/05/07 13:34:09;;;;;;;23.48;14.90;;;22.70;84.40;;;;;;5905382;29;89129;-69
2022/05/07 13:37:11;;;;;;;23.42;14.48;;;22.70;84.80;;;;;;5908563;29;89148;-69
2022/05/07 13:40:13;;;;;;;23.92;14.57;;;22.70;84.40;;;;;;5903680;29;88079;-69
2022/05/07 13:43:15;;;;;;;22.17;14.80;;;22.60;84.40;;;;;;5909842;29;89106;-68
2022/05/07 13:46:19;;;;;;;25.38;15.00;;;22.60;84.30;;;;;;5908385;29;89345;-68
2022/05/07 13:49:21;;;;;;;24.70;14.90;;;22.70;84.30;;;;;;5900455;29;90787;-69
2022/05/07 13:52:23;;;;;;;23.50;14.55;;;22.60;84.20;;;;;;5909498;29;89068;-69
2022/05/07 13:55:25;;;;;;;22.42;14.50;;;22.70;84.30;;;;;;5904261;29;89166;-69
2022/05/07 13:58:28;;;;;;;19.65;14.18;;;22.60;84.20;;;;;;5899417;29;89105;-69
2022/05/07 14:01:31;;;;;;;21.75;14.43;;;22.70;84.20;;;;;;5909672;29;89100;-70
2022/05/07 14:04:33;;;;;;;24.33;14.82;;;22.60;84.20;;;;;;5905325;29;89123;-68
2022/05/07 14:07:35;;;;;;;21.83;14.05;;;22.70;84.80;;;;;;5910172;29;89392;-69
2022/05/07 14:10:37;;;;;;;20.20;13.38;;;22.60;84.50;;;;;;5906063;29;88441;-69
2022/05/07 14:13:39;;;;;;;21.20;13.68;;;22.60;84.60;;;;;;5898773;29;89167;-69
2022/05/07 14:16:44;;;;;;;19.38;12.65;;;22.60;84.60;;;;;;5897870;29;89577;-69
2022/05/07 14:19:46;;;;;;;17.33;12.75;;;22.60;84.90;;;;;;5899906;29;89892;-69
2022/05/07 14:22:48;;;;;;;23.80;13.18;;;22.60;85.20;;;;;;5904623;29;89338;-67
2022/05/07 14:25:50;;;;;;;17.77;12.75;;;22.70;85.40;;;;;;5906338;29;89360;-68
2022/05/07 14:28:53;;;;;;;20.13;13.15;;;22.60;85.00;;;;;;5901685;29;89091;-68
2022/05/07 14:31:56;;;;;;;18.58;12.23;;;22.60;84.90;;;;;;5913461;29;87986;-69
2022/05/07 14:35:01;;;;;;;19.55;13.40;;;22.70;84.90;;;;;;5913812;29;89324;-68
2022/05/07 14:38:06;;;;;;;17.67;12.82;;;22.70;84.70;;;;;;5901928;29;89414;-68
2022/05/07 14:41:08;;;;;;;19.20;12.77;;;22.70;84.80;;;;;;5902707;29;88397;-69
2022/05/07 14:44:10;;;;;;;18.02;12.40;;;22.70;84.90;;;;;;5902205;29;89321;-69
2022/05/07 14:47:13;;;;;;;20.27;12.55;;;22.70;85.00;;;;;;5902071;29;89137;-68
2022/05/07 14:50:15;;;;;;;19.45;12.40;;;22.70;85.00;;;;;;5909032;29;90351;-68
2022/05/07 14:53:17;;;;;;;22.83;13.48;;;22.70;85.30;;;;;;5905539;29;89432;-69
2022/05/07 14:56:19;;;;;;;23.80;14.38;;;22.70;85.40;;;;;;5894851;29;89115;-68
2022/05/07 14:59:22;;;;;;;18.05;13.25;;;22.70;85.60;;;;;;5906082;29;89041;-68
2022/05/07 15:02:25;;;;;;;19.33;14.23;;;22.70;87.70;;;;;;5904945;29;89486;-67
2022/05/07 15:05:28;;;;;;;21.52;14.10;;;22.70;87.10;;;;;;5904363;29;89602;-68
2022/05/07 15:11:49;;;;;;;21.45;14.73;;;22.70;86.50;;;;;;5912673;29;87426;-68
2022/05/07 15:14:51;;;;;;;21.42;14.02;;;22.70;86.40;;;;;;5903599;29;87888;-68
2022/05/07 15:17:54;;;;;;;17.42;13.82;;;22.80;86.10;;;;;;5908279;29;87950;-68
2022/05/07 15:20:56;;;;;;;18.52;12.80;;;22.70;85.80;;;;;;5908920;29;90211;-68
2022/05/07 15:23:58;;;;;;;17.95;12.45;;;22.70;85.70;;;;;;5895374;29;89137;-66
2022/05/07 15:27:00;;;;;;;15.65;12.35;;;22.70;85.60;;;;;;5912276;29;89251;-68
2022/05/07 15:30:02;;;;;;;18.10;12.73;;;22.70;85.50;;;;;;5915071;29;89161;-68
2022/05/07 15:39:45;;;;;;;13.80;11.45;;;22.70;85.20;;;;;;5904149;29;87268;-68
2022/05/07 15:42:47;;;;;;;14.70;11.98;;;22.70;85.00;;;;;;5914347;29;88424;-66
2022/05/07 15:45:51;;;;;;;16.73;11.55;;;22.70;85.10;;;;;;5890971;29;89017;-68
2022/05/07 15:48:55;;;;;;;14.48;10.95;;;22.70;85.20;;;;;;5915200;29;89273;-68
2022/05/07 15:51:57;;;;;;;14.35;11.00;;;22.70;85.00;;;;;;5901743;29;90025;-68
2022/05/07 15:54:59;;;;;;;14.98;10.82;;;22.70;84.90;;;;;;5914498;29;89330;-68
2022/05/07 15:58:01;;;;;;;15.00;11.05;;;22.70;84.80;;;;;;5903044;29;89192;-68
2022/05/07 16:01:04;;;;;;;15.23;10.60;;;22.70;84.70;;;;;;5914252;29;88682;-67
2022/05/07 16:04:08;;;;;;;15.68;11.02;;;22.70;84.60;;;;;;5902661;29;88454;-68
2022/05/07 16:07:10;;;;;;;13.15;10.32;;;22.70;84.50;;;;;;5903324;29;89190;-68
2022/05/07 16:10:12;;;;;;;12.75;10.13;;;22.70;84.50;;;;;;5905973;29;89097;-68
2022/05/07 16:13:14;;;;;;;12.25;9.75;;;22.70;84.60;;;;;;5913421;29;88691;-68
2022/05/07 16:16:17;;;;;;;13.55;9.85;;;22.70;84.50;;;;;;5908300;29;89134;-68
2022/05/07 16:19:22;;;;;;;13.45;10.00;;;22.70;84.50;;;;;;5905102;29;89181;-68
2022/05/07 16:25:43;;;;;;;13.80;10.52;;;22.70;84.40;;;;;;5902385;29;87925;-68
2022/05/07 16:28:45;;;;;;;11.57;9.88;;;22.60;84.40;;;;;;5902202;29;89465;-67
2022/05/07 16:31:47;;;;;;;11.20;9.35;;;22.70;84.70;;;;;;5903255;29;89174;-67
2022/05/07 16:34:51;;;;;;;11.68;9.27;;;22.60;84.50;;;;;;5903311;29;88273;-67
2022/05/07 16:37:53;;;;;;;10.90;8.77;;;22.70;84.50;;;;;;5914600;29;88114;-66
2022/05/07 16:40:56;;;;;;;12.05;9.10;;;22.70;84.50;;;;;;5892642;29;88842;-67
2022/05/07 16:43:58;;;;;;;10.93;9.02;;;22.70;85.10;;;;;;5915462;29;88460;-68
2022/05/07 16:47:00;;;;;;;10.88;9.10;;;22.70;84.20;;;;;;5902898;29;89165;-67
2022/05/07 16:50:05;;;;;;;11.13;8.75;;;22.70;84.20;;;;;;5914660;29;89307;-67
2022/05/07 16:53:07;;;;;;;10.15;8.77;;;22.60;85.00;;;;;;5902151;29;90047;-67
2022/05/07 16:56:10;;;;;;;9.88;8.32;;;22.60;84.10;;;;;;5902144;29;89092;-67
2022/05/07 16:59:12;;;;;;;9.10;8.23;;;22.60;84.10;;;;;;5911836;29;89108;-68
2022/05/07 17:02:14;;;;;;;9.68;8.48;;;22.60;84.20;;;;;;5904285;29;89271;-67
2022/05/07 17:05:18;;;;;;;9.82;8.85;;;22.60;84.20;;;;;;5903027;29;89439;-68
2022/05/07 17:08:21;;;;;;;10.60;8.82;;;22.60;84.20;;;;;;5914108;29;89107;-68
2022/05/07 17:11:23;;;;;;;8.98;8.07;;;22.60;84.30;;;;;;5915278;29;89305;-67
2022/05/07 17:14:25;;;;;;;9.52;8.30;;;22.60;84.20;;;;;;5910278;29;88249;-68
2022/05/07 17:17:28;;;;;;;9.35;8.13;;;22.60;84.30;;;;;;5914002;29;89112;-67
2022/05/07 17:20:31;;;;;;;10.40;8.32;;;22.60;84.30;;;;;;5904178;29;89116;-68
2022/05/07 17:23:33;;;;;;;8.90;8.00;;;22.60;84.20;;;;;;5902302;29;90226;-67
2022/05/07 17:26:36;;;;;;;9.00;8.10;;;22.60;84.00;;;;;;5902683;29;89028;-68
2022/05/07 17:29:38;;;;;;;8.95;8.07;;;22.60;84.10;;;;;;5906622;29;87857;-66
2022/05/07 17:32:40;;;;;;;9.13;7.72;;;22.60;84.20;;;;;;5899617;29;89428;-68
2022/05/07 17:35:44;;;;;;;9.25;8.13;;;22.60;84.20;;;;;;5902839;29;89024;-67
2022/05/07 17:38:47;;;;;;;8.60;7.72;;;22.60;84.20;;;;;;5902483;29;89509;-68
2022/05/07 17:41:50;;;;;;;8.82;7.90;;;22.60;84.20;;;;;;5901609;29;89134;-68
2022/05/07 17:44:53;;;;;;;8.40;7.50;;;22.60;84.20;;;;;;5913886;29;88570;-68
2022/05/07 17:51:16;;;;;;;8.70;7.80;;;22.50;84.10;;;;;;5912336;29;87327;-68
2022/05/07 17:54:19;;;;;;;7.97;7.22;;;22.60;84.20;;;;;;5909542;29;90226;-68
2022/05/07 17:57:21;;;;;;;8.07;7.28;;;22.50;84.30;;;;;;5901894;29;89074;-66
2022/05/07 18:00:23;;;;;;;8.65;7.55;;;22.50;84.30;;;;;;5913125;29;89093;-68
2022/05/07 18:03:25;;;;;;;7.65;6.88;;;22.50;84.20;;;;;;5907505;29;89091;-68
2022/05/07 18:06:28;;;;;;;8.25;7.45;;;22.50;84.20;;;;;;5920805;29;89171;-68
2022/05/07 18:09:30;;;;;;;7.97;7.20;;;22.50;84.20;;;;;;5901378;29;89110;-67
2022/05/07 18:12:32;;;;;;;7.78;7.05;;;22.60;84.20;;;;;;5922653;29;89177;-67
2022/05/07 18:15:36;;;;;;;7.80;7.10;;;22.50;84.10;;;;;;5911829;29;88535;-66
2022/05/07 18:18:39;;;;;;;7.72;7.03;;;22.50;85.00;;;;;;5912378;29;89644;-67
2022/05/07 18:21:43;;;;;;;7.65;6.85;;;22.50;84.10;;;;;;5902499;29;89259;-67
2022/05/07 18:24:45;;;;;;;7.72;7.03;;;22.50;84.20;;;;;;5900815;29;90122;-68
2022/05/07 18:27:47;;;;;;;7.70;7.00;;;22.50;84.10;;;;;;5913292;29;89112;-67
2022/05/07 18:30:49;;;;;;;7.32;6.60;;;22.50;84.20;;;;;;5901358;29;89510;-67
2022/05/07 18:33:53;;;;;;;7.50;6.80;;;22.50;84.20;;;;;;5901465;29;89178;-67
2022/05/07 18:46:54;;;;;;;7.60;6.90;;;22.50;84.20;;;;;;5905601;29;86630;-67
2022/05/07 18:49:57;;;;;;;7.47;6.78;;;22.50;84.20;;;;;;5912510;29;89273;-67
2022/05/07 18:53:00;;;;;;;7.53;6.78;;;22.50;84.10;;;;;;5913331;29;89082;-67
2022/05/07 18:59:22;;;;;;;7.30;6.60;;;22.50;84.00;;;;;;5907578;29;87589;-67
2022/05/07 19:02:24;;;;;;;7.13;6.35;;;22.50;84.00;;;;;;5901275;29;89121;-66
2022/05/07 19:05:26;;;;;;;7.10;6.50;;;22.50;84.00;;;;;;5900925;29;89053;-67
2022/05/07 19:08:30;;;;;;;7.15;6.55;;;22.50;84.00;;;;;;5907341;29;89108;-67
2022/05/07 19:11:32;;;;;;;7.15;6.55;;;22.50;84.00;;;;;;5915372;29;89238;-67
2022/05/07 19:14:34;;;;;;;7.00;6.40;;;22.50;84.00;;;;;;5916079;29;89149;-67
2022/05/07 19:17:36;;;;;;;7.00;6.38;;;22.50;84.00;;;;;;5917248;29;88618;-67
2022/05/07 19:20:39;;;;;;;7.38;6.78;;;22.40;84.00;;;;;;5905917;29;89063;-68
2022/05/07 19:23:42;;;;;;;7.60;6.90;;;22.40;84.00;;;;;;5916848;29;89105;-68
2022/05/07 19:26:44;;;;;;;7.47;6.78;;;22.40;84.00;;;;;;5926249;29;90362;-67
2022/05/07 19:29:46;;;;;;;7.28;6.57;;;22.40;84.10;;;;;;5914493;29;89101;-67
2022/05/07 19:32:48;;;;;;;7.05;6.43;;;22.50;84.20;;;;;;5905664;29;89142;-67
2022/05/07 19:35:51;;;;;;;7.10;6.45;;;22.40;84.00;;;;;;5922871;29;89209;-67
2022/05/07 19:38:55;;;;;;;7.22;6.63;;;22.40;84.00;;;;;;5914127;29;89431;-67
2022/05/07 19:41:57;;;;;;;7.53;6.88;;;22.40;83.90;;;;;;5910543;29;89117;-66
2022/05/07 19:45:00;;;;;;;7.60;6.90;;;22.40;83.80;;;;;;5915726;29;89189;-67
2022/05/07 19:48:02;;;;;;;7.07;6.47;;;22.50;83.90;;;;;;5904316;29;86739;-67
2022/05/07 19:51:04;;;;;;;7.60;7.00;;;22.50;84.00;;;;;;5915270;29;89017;-67
2022/05/07 19:54:08;;;;;;;7.70;7.10;;;22.40;83.80;;;;;;5904053;29;89084;-67
2022/05/07 19:57:10;;;;;;;7.28;6.68;;;22.40;84.00;;;;;;5902584;29;90085;-67
2022/05/07 20:00:13;;;;;;;7.53;6.93;;;22.40;83.90;;;;;;5916295;29;88171;-67
2022/05/07 20:03:15;;;;;;;7.78;7.07;;;22.40;83.80;;;;;;5915421;29;89062;-66
2022/05/07 20:06:17;;;;;;;7.65;6.95;;;22.40;83.90;;;;;;5906279;29;87976;-67
2022/05/07 20:09:21;;;;;;;7.47;6.88;;;22.40;83.90;;;;;;5912950;29;88226;-67
2022/05/07 20:12:24;;;;;;;7.57;6.88;;;22.40;83.90;;;;;;5911691;29;89156;-67
2022/05/07 20:15:26;;;;;;;8.20;7.50;;;22.40;84.80;;;;;;5914953;29;89016;-66
2022/05/07 20:18:31;;;;;;;7.50;6.90;;;22.40;83.90;;;;;;5904632;29;88439;-67
2022/05/07 20:21:52;;;;;;;8.05;7.35;;;22.40;83.80;;;;;;5913249;29;89070;-67
2022/05/07 20:24:55;;;;;;;7.80;7.20;;;22.40;83.80;;;;;;5912722;29;88014;-67
2022/05/07 20:28:00;;;;;;;7.82;7.22;;;22.40;83.70;;;;;;5912608;29;90023;-67
2022/05/07 20:31:02;;;;;;;8.00;7.20;;;22.40;83.70;;;;;;5905771;29;89259;-67
2022/05/07 20:34:06;;;;;;;7.90;7.20;;;22.40;83.70;;;;;;5903557;29;89073;-67
2022/05/07 20:37:08;;;;;;;8.32;7.63;;;22.40;83.70;;;;;;5902580;29;89065;-67
2022/05/07 20:40:12;;;;;;;8.90;8.10;;;22.40;83.70;;;;;;5902603;29;89219;-67
2022/05/07 20:46:33;;;;;;;8.15;7.45;;;22.40;83.70;;;;;;5907213;29;87363;-67
2022/05/07 20:49:35;;;;;;;8.43;7.72;;;22.40;83.70;;;;;;5910863;29;88772;-67
2022/05/07 20:52:37;;;;;;;8.52;7.72;;;22.40;83.70;;;;;;5902859;29;87967;-67
2022/05/07 20:55:41;;;;;;;8.25;7.55;;;22.40;83.70;;;;;;5914642;29;89104;-67
2022/05/07 20:58:43;;;;;;;8.70;7.85;;;22.40;83.80;;;;;;5890922;29;90116;-67
2022/05/07 21:01:47;;;;;;;8.75;7.97;;;22.30;83.70;;;;;;5898616;29;87959;-67
2022/05/07 21:04:49;;;;;;;8.80;8.00;;;22.30;83.70;;;;;;5899295;29;89410;-67
2022/05/07 21:07:51;;;;;;;9.15;8.40;;;22.30;83.70;;;;;;5910702;29;89116;-66
2022/05/07 21:10:55;;;;;;;8.90;8.10;;;22.40;83.70;;;;;;5913801;29;88067;-67
2022/05/07 21:13:57;;;;;;;9.18;8.38;;;22.40;83.70;;;;;;5902201;29;89129;-67
2022/05/07 21:16:59;;;;;;;9.00;8.20;;;22.30;83.50;;;;;;5902496;29;89071;-67
2022/05/07 21:20:01;;;;;;;9.05;8.25;;;22.30;83.50;;;;;;5914859;29;88454;-67
2022/05/07 21:23:04;;;;;;;9.43;8.63;;;22.40;83.60;;;;;;5913789;29;89108;-67
2022/05/07 21:29:27;;;;;;;9.40;8.60;;;22.30;83.60;;;;;;5902354;29;88435;-66
2022/05/07 21:32:30;;;;;;;9.82;9.02;;;22.40;83.70;;;;;;5903161;29;89112;-67
2022/05/07 21:35:32;;;;;;;9.27;8.48;;;22.30;83.60;;;;;;5912820;29;89389;-67
2022/05/07 21:38:34;;;;;;;9.48;8.68;;;22.30;83.50;;;;;;5901822;29;89150;-67
2022/05/07 21:41:37;;;;;;;10.50;9.60;;;22.30;83.60;;;;;;5913931;29;89422;-67
2022/05/07 21:44:39;;;;;;;10.20;9.30;;;22.30;83.70;;;;;;5902419;29;89180;-67
2022/05/07 21:47:41;;;;;;;10.25;9.35;;;22.30;83.70;;;;;;5902239;29;89099;-68
2022/05/07 21:54:08;;;;;;;10.25;9.35;;;22.30;83.80;;;;;;5901712;29;88629;-67
2022/05/07 21:57:13;;;;;;;10.63;9.70;;;22.30;83.70;;;;;;5901979;29;89193;-68
2022/05/07 22:00:23;;;;;;;10.88;9.98;;;22.30;83.70;;;;;;5901196;29;88885;-66
2022/05/07 22:03:25;;;;;;;10.93;10.00;;;22.30;83.70;;;;;;5909044;29;89427;-67
2022/05/07 22:06:27;;;;;;;10.35;9.45;;;22.30;83.70;;;;;;5911468;29;88019;-67
2022/05/07 22:09:29;;;;;;;10.40;9.40;;;22.30;83.70;;;;;;5886015;29;89135;-67
2022/05/07 22:12:51;;;;;;;10.77;9.88;;;22.30;83.70;;;;;;5910679;29;87987;-67
2022/05/07 22:15:53;;;;;;;10.52;9.68;;;22.30;83.70;;;;;;5901235;29;89118;-67
2022/05/07 22:18:55;;;;;;;10.90;10.00;;;22.30;83.70;;;;;;5906292;29;89135;-67
2022/05/07 22:21:59;;;;;;;11.23;10.23;;;22.20;83.70;;;;;;5895064;29;88416;-67
2022/05/07 22:25:01;;;;;;;11.00;10.00;;;22.20;83.70;;;;;;5895195;29;89601;-67
2022/05/07 22:28:05;;;;;;;10.68;9.77;;;22.20;83.70;;;;;;5910650;29;89101;-66
2022/05/07 22:31:07;;;;;;;10.77;9.88;;;22.20;83.80;;;;;;5912459;29;90157;-67
2022/05/07 22:34:09;;;;;;;10.77;9.77;;;22.20;83.80;;;;;;5901358;29;89452;-67
2022/05/07 22:37:11;;;;;;;11.77;10.77;;;22.30;83.80;;;;;;5900997;29;88785;-67
2022/05/07 22:40:13;;;;;;;11.35;10.35;;;22.20;83.80;;;;;;5904630;29;89435;-67
2022/05/07 22:43:16;;;;;;;10.75;9.75;;;22.20;83.80;;;;;;5912300;29;89454;-66
2022/05/07 22:46:19;;;;;;;11.50;10.50;;;22.30;83.80;;;;;;5902921;29;89121;-66
2022/05/07 22:49:21;;;;;;;11.15;10.25;;;22.20;83.70;;;;;;5904317;29;89025;-67
2022/05/07 22:52:23;;;;;;;11.75;10.60;;;22.20;83.60;;;;;;5904583;29;88436;-66
2022/05/07 22:55:25;;;;;;;10.95;10.05;;;22.30;83.70;;;;;;5892511;29;89172;-67
2022/05/07 22:58:28;;;;;;;11.02;10.07;;;22.20;83.60;;;;;;5907667;29;88825;-67
2022/05/07 23:01:30;;;;;;;11.02;10.05;;;22.20;83.70;;;;;;5911197;29;90031;-68
2022/05/07 23:04:32;;;;;;;11.60;10.70;;;22.20;83.70;;;;;;5903711;29;89093;-67
2022/05/07 23:07:34;;;;;;;11.52;10.52;;;22.20;83.70;;;;;;5903674;29;89121;-67
2022/05/07 23:10:36;;;;;;;13.00;11.73;;;22.20;83.70;;;;;;5910673;29;89238;-67
2022/05/07 23:13:39;;;;;;;11.73;10.63;;;22.20;83.70;;;;;;5911699;29;89283;-67
2022/05/07 23:16:42;;;;;;;11.32;10.35;;;22.20;83.80;;;;;;5918104;29;88023;-67
2022/05/07 23:19:43;;;;;;;11.82;10.80;;;22.20;83.70;;;;;;5897360;29;89498;-67
2022/05/07 23:22:45;;;;;;;11.18;10.18;;;22.20;83.80;;;;;;5899757;29;88763;-67
2022/05/07 23:25:47;;;;;;;12.43;11.27;;;22.20;83.80;;;;;;5903607;29;89436;-67
2022/05/07 23:28:51;;;;;;;11.90;10.90;;;22.20;83.80;;;;;;5906335;29;89457;-67
2022/05/07 23:31:52;;;;;;;11.20;10.30;;;22.20;83.70;;;;;;5925566;29;89964;-67
2022/05/07 23:34:55;;;;;;;12.45;11.27;;;22.20;83.70;;;;;;5925842;29;88180;-67
2022/05/07 23:37:57;;;;;;;12.13;11.02;;;22.20;83.60;;;;;;5914627;29;89432;-67
2022/05/07 23:40:58;;;;;;;12.02;11.02;;;22.20;83.60;;;;;;5903331;29;89085;-67
2022/05/07 23:44:02;;;;;;;12.35;11.23;;;22.20;83.70;;;;;;5903901;29;89057;-67
2022/05/07 23:47:05;;;;;;;12.57;11.48;;;22.20;83.70;;;;;;5903350;29;89034;-67
2022/05/07 23:50:08;;;;;;;12.05;10.95;;;22.20;83.70;;;;;;5914920;29;89103;-67
2022/05/07 23:53:10;;;;;;;12.75;11.65;;;22.20;83.70;;;;;;5899018;29;88531;-67
2022/05/07 23:56:12;;;;;;;12.55;11.35;;;22.20;83.70;;;;;;5896664;29;89077;-67
2022/05/07 23:59:15;;;;;;;12.30;11.25;;;22.20;83.70;;;;;;5911901;29;87780;-67
